createdAt,value
2023-03-27T00:02:26.399Z,96388.34
2023-03-27T00:04:54.823Z,96383.94
2023-03-27T00:07:22.813Z,96390.28
2023-03-27T00:09:53.605Z,96390.09
2023-03-27T00:12:22.026Z,96408.72
2023-03-27T00:14:55.648Z,96425.25
2023-03-27T00:17:25.232Z,96423.09
2023-03-27T00:19:53.638Z,96413.41
2023-03-27T00:22:21.002Z,96402.63
2023-03-27T00:24:48.376Z,96386.41
2023-03-27T00:27:18.487Z,96394.50
2023-03-27T00:29:48.027Z,96402.03
2023-03-27T00:32:15.471Z,96392.75
2023-03-27T00:34:44.922Z,96388.16
2023-03-27T00:37:16.843Z,96392.25
2023-03-27T00:39:44.111Z,96400.72
2023-03-27T00:42:15.214Z,96394.34
2023-03-27T00:44:42.697Z,96398.91
2023-03-27T00:47:12.919Z,96392.75
2023-03-27T00:49:40.235Z,96388.81
2023-03-27T00:52:08.856Z,96399.47
2023-03-27T00:54:39.091Z,96409.06
2023-03-27T00:57:12.878Z,96411.66
2023-03-27T00:59:43.406Z,96401.94
2023-03-27T01:02:19.958Z,96406.63
2023-03-27T01:04:49.324Z,96397.13
2023-03-27T01:07:26.337Z,96394.34
2023-03-27T01:09:56.579Z,96385.81
2023-03-27T01:12:39.332Z,96375.34
2023-03-27T01:15:41.683Z,96385.63
2023-03-27T01:18:42.324Z,96405.16
2023-03-27T01:21:43.226Z,96394.63
2023-03-27T01:25:04.548Z,96375.47
2023-03-27T01:27:51.707Z,96371.28
2023-03-27T01:30:46.687Z,96355.09
2023-03-27T01:34:06.265Z,96358.97
2023-03-27T01:36:48.446Z,96369.22
2023-03-27T01:39:43.566Z,96375.66
2023-03-27T01:42:49.535Z,96348.81
2023-03-27T01:45:21.947Z,96356.88
2023-03-27T01:48:07.466Z,96364.91
2023-03-27T01:50:55.314Z,96343.16
2023-03-27T01:53:58.044Z,96334.81
2023-03-27T01:56:37.670Z,96332.38
2023-03-27T01:59:16.593Z,96314.75
2023-03-27T02:01:59.401Z,96320.47
2023-03-27T02:04:41.015Z,96306.94
2023-03-27T02:07:18.853Z,96323.56
2023-03-27T02:09:55.531Z,96316.19
2023-03-27T02:12:35.176Z,96324.59
2023-03-27T02:15:35.413Z,96320.81
2023-03-27T02:18:14.654Z,96310.22
2023-03-27T02:20:42.283Z,96288.81
2023-03-27T02:23:23.228Z,96279.84
2023-03-27T02:25:54.552Z,96281.59
2023-03-27T02:28:51.796Z,96290.66
2023-03-27T02:31:53.026Z,96299.09
2023-03-27T02:35:37.319Z,96317.06
2023-03-27T02:38:28.933Z,96288.44
2023-03-27T02:41:20.437Z,96289.00
2023-03-27T02:43:56.593Z,96296.06
2023-03-27T02:46:50.862Z,96297.88
2023-03-27T02:49:32.895Z,96295.50
2023-03-27T02:52:10.016Z,96297.94
2023-03-27T02:54:49.609Z,96298.94
2023-03-27T02:57:27.276Z,96293.09
2023-03-27T03:00:00.849Z,96287.09
2023-03-27T03:02:33.985Z,96285.28
2023-03-27T03:05:15.085Z,96287.63
2023-03-27T03:07:42.632Z,96283.31
2023-03-27T03:10:11.887Z,96289.16
2023-03-27T03:12:39.605Z,96296.66
2023-03-27T03:15:08.699Z,96293.38
2023-03-27T03:17:36.031Z,96278.25
2023-03-27T03:20:05.483Z,96279.91
2023-03-27T03:22:38.216Z,96278.78
2023-03-27T03:25:13.883Z,96292.59
2023-03-27T03:27:44.450Z,96294.09
2023-03-27T03:30:16.543Z,96291.19
2023-03-27T03:32:44.820Z,96306.38
2023-03-27T03:35:13.873Z,96306.34
2023-03-27T03:37:41.222Z,96312.50
2023-03-27T03:40:12.121Z,96299.44
2023-03-27T03:42:51.500Z,96282.81
2023-03-27T03:45:19.952Z,96272.44
2023-03-27T03:47:47.803Z,96274.56
2023-03-27T03:50:15.445Z,96261.81
2023-03-27T03:52:43.495Z,96252.41
2023-03-27T03:55:25.843Z,96248.41
2023-03-27T03:57:53.026Z,96252.09
2023-03-27T04:00:20.388Z,96264.31
2023-03-27T04:02:52.292Z,96251.25
2023-03-27T04:05:21.048Z,96243.13
2023-03-27T04:07:49.934Z,96232.41
2023-03-27T04:10:21.066Z,96238.84
2023-03-27T04:12:49.607Z,96253.56
2023-03-27T04:15:20.542Z,96267.09
2023-03-27T04:17:48.760Z,96250.59
2023-03-27T04:20:18.574Z,96259.94
2023-03-27T04:22:48.866Z,96253.03
2023-03-27T04:25:26.426Z,96243.78
2023-03-27T04:27:53.660Z,96262.56
2023-03-27T04:30:25.495Z,96248.72
2023-03-27T04:32:54.721Z,96244.22
2023-03-27T04:35:22.244Z,96244.16
2023-03-27T04:37:57.308Z,96242.13
2023-03-27T04:40:25.750Z,96235.28
2023-03-27T04:42:56.090Z,96235.47
2023-03-27T04:45:26.008Z,96225.47
2023-03-27T04:47:54.736Z,96222.75
2023-03-27T04:50:22.170Z,96221.91
2023-03-27T04:52:50.551Z,96214.28
2023-03-27T04:55:26.160Z,96213.31
2023-03-27T04:57:57.668Z,96212.63
2023-03-27T05:00:25.867Z,96203.94
2023-03-27T05:02:56.318Z,96197.94
2023-03-27T05:05:25.244Z,96196.50
2023-03-27T05:07:55.171Z,96199.94
2023-03-27T05:10:22.657Z,96199.84
2023-03-27T05:12:52.547Z,96198.03
2023-03-27T05:15:22.111Z,96197.41
2023-03-27T05:17:57.703Z,96192.94
2023-03-27T05:20:25.660Z,96201.72
2023-03-27T05:23:02.469Z,96190.97
2023-03-27T05:25:31.344Z,96188.88
2023-03-27T05:30:43.216Z,96180.88
2023-03-27T05:33:14.130Z,96179.72
2023-03-27T05:35:48.449Z,96184.97
2023-03-27T05:38:17.210Z,96176.66
2023-03-27T05:40:44.660Z,96178.88
2023-03-27T05:43:11.985Z,96188.47
2023-03-27T05:45:43.534Z,96191.69
2023-03-27T05:48:13.592Z,96189.09
2023-03-27T05:50:41.855Z,96202.72
2023-03-27T05:53:11.217Z,96200.22
2023-03-27T05:55:50.623Z,96184.59
2023-03-27T05:58:30.744Z,96180.81
2023-03-27T06:00:58.172Z,96178.81
2023-03-27T06:03:25.913Z,96193.53
2023-03-27T06:05:53.328Z,96194.97
2023-03-27T06:08:23.585Z,96228.84
2023-03-27T06:10:54.845Z,96207.84
2023-03-27T06:13:22.115Z,96203.13
2023-03-27T06:15:51.841Z,96187.03
2023-03-27T06:18:21.362Z,96215.25
2023-03-27T06:20:48.597Z,96202.69
2023-03-27T06:23:18.546Z,96231.63
2023-03-27T06:25:47.599Z,96216.84
2023-03-27T06:28:15.003Z,96223.56
2023-03-27T06:30:42.509Z,96201.22
2023-03-27T06:33:10.440Z,96205.88
2023-03-27T06:35:38.142Z,96210.16
2023-03-27T06:38:17.026Z,96229.81
2023-03-27T06:40:45.168Z,96223.69
2023-03-27T06:43:14.277Z,96246.00
2023-03-27T06:45:49.302Z,96253.56
2023-03-27T06:48:21.306Z,96261.06
2023-03-27T06:50:52.157Z,96269.00
2023-03-27T06:55:51.072Z,96289.34
2023-03-27T06:58:19.381Z,96310.59
2023-03-27T07:00:49.742Z,96301.72
2023-03-27T07:03:19.381Z,96312.97
2023-03-27T07:05:46.783Z,96305.31
2023-03-27T07:10:56.363Z,96317.38
2023-03-27T07:13:36.273Z,96315.88
2023-03-27T07:16:04.633Z,96322.75
2023-03-27T07:18:32.148Z,96323.88
2023-03-27T07:20:59.415Z,96324.50
2023-03-27T07:23:27.090Z,96319.84
2023-03-27T07:26:01.911Z,96319.53
2023-03-27T07:28:29.320Z,96321.09
2023-03-27T07:30:56.779Z,96320.09
2023-03-27T07:33:24.436Z,96311.75
2023-03-27T07:35:51.981Z,96309.97
2023-03-27T07:38:19.145Z,96314.94
2023-03-27T07:40:46.684Z,96327.53
2023-03-27T07:43:17.630Z,96327.97
2023-03-27T07:46:05.099Z,96329.25
2023-03-27T07:48:36.328Z,96306.72
2023-03-27T07:51:13.764Z,96290.78
2023-03-27T07:53:41.875Z,96269.50
2023-03-27T07:56:09.461Z,96258.09
2023-03-27T07:58:37.206Z,96278.91
2023-03-27T08:01:04.928Z,96289.81
2023-03-27T08:03:32.463Z,96299.31
2023-03-27T08:06:01.357Z,96319.28
2023-03-27T08:08:29.715Z,96320.00
2023-03-27T08:11:27.416Z,96330.59
2023-03-27T08:13:57.314Z,96345.22
2023-03-27T08:16:28.323Z,96345.69
2023-03-27T08:18:55.884Z,96344.34
2023-03-27T08:21:24.009Z,96343.25
2023-03-27T08:23:51.347Z,96350.38
2023-03-27T08:26:18.843Z,96354.69
2023-03-27T08:28:59.060Z,96351.78
2023-03-27T08:31:29.375Z,96354.41
2023-03-27T08:33:56.741Z,96367.34
2023-03-27T08:36:24.719Z,96370.78
2023-03-27T08:38:55.390Z,96374.63
2023-03-27T08:41:46.999Z,96403.19
2023-03-27T08:44:18.945Z,96397.34
2023-03-27T08:47:13.618Z,96398.34
2023-03-27T08:49:53.649Z,96408.84
2023-03-27T08:52:24.097Z,96412.66
2023-03-27T08:55:25.592Z,96418.84
2023-03-27T08:57:53.418Z,96416.50
2023-03-27T09:00:32.131Z,96422.13
2023-03-27T09:03:11.366Z,96418.81
2023-03-27T09:06:02.248Z,96416.22
2023-03-27T09:08:55.598Z,96412.03
2023-03-27T09:11:44.870Z,96410.25
2023-03-27T09:14:31.746Z,96402.69
2023-03-27T09:17:11.496Z,96412.31
2023-03-27T09:20:06.252Z,96414.84
2023-03-27T09:22:48.582Z,96420.34
2023-03-27T09:25:25.044Z,96408.63
2023-03-27T09:27:53.701Z,96405.97
2023-03-27T09:30:35.004Z,96409.69
2023-03-27T09:33:07.100Z,96414.56
2023-03-27T09:35:41.311Z,96421.38
2023-03-27T09:38:35.239Z,96413.69
2023-03-27T09:41:24.296Z,96403.09
2023-03-27T09:44:09.175Z,96423.28
2023-03-27T09:46:44.463Z,96412.78
2023-03-27T09:49:29.858Z,96438.25
2023-03-27T09:52:00.289Z,96437.22
2023-03-27T09:54:32.253Z,96447.94
2023-03-27T09:57:29.854Z,96439.53
2023-03-27T10:00:28.750Z,96452.09
2023-03-27T10:03:04.027Z,96435.94
2023-03-27T10:05:35.418Z,96448.31
2023-03-27T10:08:32.881Z,96448.75
2023-03-27T10:11:00.209Z,96450.59
2023-03-27T10:13:29.636Z,96448.13
2023-03-27T10:19:52.377Z,96450.22
2023-03-27T10:22:29.629Z,96446.41
2023-03-27T10:25:01.680Z,96452.03
2023-03-27T10:27:37.300Z,96465.00
2023-03-27T10:30:35.353Z,96461.75
2023-03-27T10:33:03.474Z,96456.41
2023-03-27T10:35:38.125Z,96472.66
2023-03-27T10:38:18.460Z,96471.19
2023-03-27T10:40:51.844Z,96458.09
2023-03-27T10:43:43.958Z,96470.81
2023-03-27T10:46:24.130Z,96466.44
2023-03-27T10:49:22.479Z,96461.84
2023-03-27T10:52:31.224Z,96468.06
2023-03-27T10:55:01.497Z,96459.50
2023-03-27T10:57:37.800Z,96450.88
2023-03-27T11:00:39.066Z,96462.66
2023-03-27T11:03:43.973Z,96471.00
2023-03-27T11:06:19.501Z,96473.72
2023-03-27T11:09:05.895Z,96467.03
2023-03-27T11:11:45.355Z,96472.81
2023-03-27T11:14:24.561Z,96465.22
2023-03-27T11:17:16.196Z,96458.31
2023-03-27T11:20:00.467Z,96456.13
2023-03-27T11:22:42.277Z,96445.50
2023-03-27T11:25:29.975Z,96431.06
2023-03-27T11:28:36.621Z,96430.22
2023-03-27T11:31:38.233Z,96456.03
2023-03-27T11:34:36.638Z,96449.28
2023-03-27T11:37:32.177Z,96442.28
2023-03-27T11:40:09.683Z,96438.50
2023-03-27T11:42:44.059Z,96452.59
2023-03-27T11:45:23.137Z,96438.91
2023-03-27T11:48:56.977Z,96459.81
2023-03-27T11:51:42.610Z,96460.41
2023-03-27T11:54:40.843Z,96448.69
2023-03-27T11:57:26.007Z,96449.66
2023-03-27T12:00:07.067Z,96458.38
2023-03-27T12:03:06.289Z,96442.66
2023-03-27T12:06:14.286Z,96455.81
2023-03-27T12:09:03.967Z,96451.63
2023-03-27T12:11:31.943Z,96472.31
2023-03-27T12:18:05.622Z,96457.06
2023-03-27T12:20:54.829Z,96465.19
2023-03-27T12:23:54.224Z,96452.91
2023-03-27T12:26:45.967Z,96453.63
2023-03-27T12:30:07.035Z,96410.56
2023-03-27T12:32:55.350Z,96431.47
2023-03-27T12:35:32.197Z,96442.66
2023-03-27T12:38:05.772Z,96422.72
2023-03-27T12:40:39.969Z,96443.53
2023-03-27T12:43:31.997Z,96456.53
2023-03-27T12:46:18.929Z,96470.91
2023-03-27T12:49:20.386Z,96467.81
2023-03-27T12:52:05.046Z,96476.66
2023-03-27T12:54:42.640Z,96484.03
2023-03-27T12:57:25.126Z,96470.78
2023-03-27T13:00:18.654Z,96463.38
2023-03-27T13:03:18.585Z,96449.88
2023-03-27T13:06:17.611Z,96454.16
2023-03-27T13:09:17.014Z,96477.38
2023-03-27T13:12:25.386Z,96488.16
2023-03-27T13:15:18.578Z,96490.00
2023-03-27T13:18:23.806Z,96486.81
2023-03-27T13:21:47.524Z,96462.81
2023-03-27T13:25:00.123Z,96491.09
2023-03-27T13:28:10.274Z,96501.38
2023-03-27T13:30:54.525Z,96490.22
2023-03-27T13:33:42.433Z,96493.13
2023-03-27T13:36:36.629Z,96499.09
2023-03-27T13:39:06.093Z,96493.47
2023-03-27T13:41:45.379Z,96496.72
2023-03-27T13:44:30.503Z,96504.59
2023-03-27T13:47:54.748Z,96512.22
2023-03-27T13:50:49.289Z,96528.56
2023-03-27T13:53:53.497Z,96522.41
2023-03-27T13:56:58.291Z,96535.09
2023-03-27T13:59:52.642Z,96528.03
2023-03-27T14:02:48.526Z,96521.09
2023-03-27T14:05:37.471Z,96512.75
2023-03-27T14:08:51.644Z,96532.94
2023-03-27T14:11:23.845Z,96532.16
2023-03-27T14:14:18.829Z,96533.66
2023-03-27T14:17:06.718Z,96547.22
2023-03-27T14:20:08.292Z,96550.00
2023-03-27T14:23:06.013Z,96555.16
2023-03-27T14:25:39.962Z,96555.56
2023-03-27T14:28:10.522Z,96548.03
2023-03-27T14:30:52.328Z,96548.19
2023-03-27T14:33:21.994Z,96517.56
2023-03-27T14:36:02.482Z,96504.75
2023-03-27T14:38:47.925Z,96482.78
2023-03-27T14:41:22.079Z,96472.81
2023-03-27T14:43:52.340Z,96458.31
2023-03-27T14:46:27.084Z,96474.22
2023-03-27T14:49:00.042Z,96471.28
2023-03-27T14:51:48.479Z,96498.91
2023-03-27T14:54:36.788Z,96507.75
2023-03-27T14:57:14.516Z,96484.75
2023-03-27T15:00:09.355Z,96519.34
2023-03-27T15:02:44.631Z,96506.00
2023-03-27T15:06:14.375Z,96489.75
2023-03-27T15:08:48.411Z,96497.22
2023-03-27T15:11:21.817Z,96501.94
2023-03-27T15:13:52.345Z,96499.91
2023-03-27T15:16:34.712Z,96479.22
2023-03-27T15:19:19.948Z,96474.75
2023-03-27T15:22:15.099Z,96463.19
2023-03-27T15:25:19.893Z,96456.97
2023-03-27T15:29:01.669Z,96469.03
2023-03-27T15:31:37.171Z,96467.53
2023-03-27T15:34:37.592Z,96473.47
2023-03-27T15:37:33.822Z,96457.75
2023-03-27T15:43:34.276Z,96467.00
2023-03-27T15:46:26.866Z,96482.00
2023-03-27T15:54:32.520Z,96500.75
2023-03-27T15:57:15.913Z,96499.91
2023-03-27T16:00:14.807Z,96505.28
2023-03-27T16:02:43.740Z,96524.88
2023-03-27T16:05:18.319Z,96505.78
2023-03-27T16:07:50.268Z,96533.56
2023-03-27T16:10:49.688Z,96528.81
2023-03-27T16:14:08.995Z,96530.53
2023-03-27T16:17:47.468Z,96556.75
2023-03-27T16:23:40.607Z,96612.59
2023-03-27T16:26:42.949Z,96608.06
2023-03-27T16:36:44.127Z,96617.78
2023-03-27T16:39:11.620Z,96623.38
2023-03-27T16:41:42.413Z,96630.28
2023-03-27T16:44:09.694Z,96639.13
2023-03-27T16:47:00.899Z,96641.91
2023-03-27T16:49:36.262Z,96643.06
2023-03-27T16:52:22.527Z,96646.16
2023-03-27T16:54:57.534Z,96647.59
2023-03-27T16:57:25.792Z,96652.94
2023-03-27T16:59:57.756Z,96649.91
2023-03-27T17:02:29.005Z,96647.69
2023-03-27T17:05:55.579Z,96649.41
2023-03-27T17:09:02.620Z,96652.53
2023-03-27T17:11:51.290Z,96648.34
2023-03-27T17:14:46.408Z,96665.53
2023-03-27T17:20:48.169Z,96659.75
2023-03-27T17:24:25.869Z,96667.53
2023-03-27T17:27:40.490Z,96686.34
2023-03-27T17:30:11.421Z,96685.94
2023-03-27T17:38:39.252Z,96712.53
2023-03-27T17:40:10.017Z,96706.56
2023-03-27T17:45:06.537Z,96721.66
2023-03-27T17:53:15.755Z,96729.69
2023-03-27T17:56:16.856Z,96739.66
2023-03-27T17:59:23.307Z,96757.81
2023-03-27T18:02:30.808Z,96767.50
2023-03-27T18:05:38.373Z,96775.25
2023-03-27T18:08:30.252Z,96779.38
2023-03-27T18:11:41.027Z,96777.47
2023-03-27T18:15:45.125Z,96793.69
2023-03-27T18:23:38.034Z,96795.03
2023-03-27T18:26:26.095Z,96793.19
2023-03-27T18:29:40.365Z,96800.97
2023-03-27T18:32:28.217Z,96803.09
2023-03-27T18:35:24.733Z,96802.31
2023-03-27T18:46:14.090Z,96826.66
2023-03-27T18:49:10.215Z,96817.59
2023-03-27T18:53:04.885Z,96827.66
2023-03-27T19:04:50.552Z,96835.38
2023-03-27T19:07:45.487Z,96839.63
2023-03-27T19:12:05.947Z,96850.91
2023-03-27T19:14:39.173Z,96861.09
2023-03-27T19:17:29.218Z,96870.94
2023-03-27T19:21:02.549Z,96877.28
2023-03-27T19:24:03.438Z,96886.09
2023-03-27T19:27:44.906Z,96890.22
2023-03-27T19:35:16.477Z,96887.19
2023-03-27T19:45:28.038Z,96907.22
2023-03-27T20:03:52.563Z,96919.53
2023-03-27T20:06:22.275Z,96933.16
2023-03-27T20:14:21.885Z,96953.22
2023-03-27T20:28:03.714Z,96978.84
2023-03-27T20:30:57.554Z,96973.34
2023-03-27T20:36:39.730Z,96967.28
2023-03-27T20:42:15.302Z,96977.06
2023-03-27T20:45:26.886Z,96974.34
2023-03-27T20:52:07.314Z,96981.63
2023-03-27T21:01:44.261Z,96977.75
2023-03-27T21:04:26.758Z,96999.47
2023-03-27T21:07:49.197Z,96996.16
2023-03-27T21:14:41.987Z,97000.56
2023-03-27T21:17:59.666Z,96994.34
2023-03-27T21:29:38.026Z,97014.16
2023-03-27T23:14:42.219Z,97139.06
2023-03-27T23:17:52.001Z,97149.50
2023-03-27T23:20:48.333Z,97145.28
2023-03-27T23:23:42.559Z,97147.22
2023-03-27T23:26:46.516Z,97146.22
2023-03-27T23:29:42.459Z,97149.31
2023-03-27T23:33:01.460Z,97163.66
2023-03-27T23:39:42.037Z,97159.13
2023-03-27T23:42:21.607Z,97157.09
2023-03-27T23:44:51.654Z,97164.72
2023-03-27T23:47:26.142Z,97156.28
2023-03-27T23:50:26.171Z,97167.16
